Time;durP1;ratioP1;P1;durP2;ratioP2;P2;SDS_P1;SDS_P2;PMS_P1;PMS_P2;Temp;Humidity;BMP_temperature;BMP_pressure;BME280_temperature;BME280_humidity;BME280_pressure;Samples;Min_cycle;Max_cycle;Signal;HPM_P1;HPM_P2
2021/12/01 00:01:09;;;;;;;0.80;0.80;;;5.90;99.90;;;;;;4997813;28;20301;-61
2021/12/01 00:03:36;;;;;;;0.60;0.60;;;5.80;99.90;;;;;;4996412;28;20208;-61
2021/12/01 00:06:05;;;;;;;0.80;0.80;;;5.90;99.90;;;;;;4997189;28;20210;-62
2021/12/01 00:08:33;;;;;;;0.60;0.60;;;5.90;99.90;;;;;;4994832;28;20206;-59
2021/12/01 00:11:00;;;;;;;0.70;0.70;;;5.90;99.90;;;;;;4996592;28;20260;-61
2021/12/01 00:13:28;;;;;;;0.60;0.60;;;5.90;99.90;;;;;;5005430;28;20202;-61
2021/12/01 00:15:56;;;;;;;0.60;0.60;;;5.80;99.90;;;;;;5002338;28;20210;-60
2021/12/01 00:18:23;;;;;;;0.60;0.60;;;5.90;99.90;;;;;;5000475;28;20241;-60
2021/12/01 00:20:50;;;;;;;0.60;0.60;;;5.90;99.90;;;;;;4998947;28;20240;-60
2021/12/01 00:23:17;;;;;;;0.80;0.80;;;5.90;99.90;;;;;;4997738;28;20571;-61
2021/12/01 00:25:44;;;;;;;0.70;0.70;;;5.90;99.90;;;;;;4995365;28;20289;-60
2021/12/01 00:28:11;;;;;;;0.70;0.70;;;5.90;99.90;;;;;;4992457;28;20220;-61
2021/12/01 00:30:40;;;;;;;0.80;0.80;;;5.90;99.90;;;;;;4993166;28;20226;-60
2021/12/01 00:33:10;;;;;;;0.80;0.80;;;6.00;99.90;;;;;;4993649;28;20216;-60
2021/12/01 00:35:37;;;;;;;0.70;0.70;;;6.00;99.90;;;;;;4993377;28;20244;-60
2021/12/01 00:38:04;;;;;;;0.60;0.60;;;6.00;99.90;;;;;;4993589;28;20198;-59
2021/12/01 00:40:32;;;;;;;0.83;0.83;;;6.00;99.90;;;;;;4993775;28;20608;-59
2021/12/01 00:42:59;;;;;;;0.60;0.60;;;6.00;99.90;;;;;;4993075;28;20212;-60
2021/12/01 00:45:27;;;;;;;0.70;0.70;;;6.00;99.90;;;;;;4993169;28;20209;-60
2021/12/01 00:47:54;;;;;;;0.60;0.60;;;6.10;99.90;;;;;;4992504;28;20290;-59
2021/12/01 00:50:25;;;;;;;0.70;0.70;;;6.10;99.90;;;;;;4993492;28;20232;-60
2021/12/01 00:52:53;;;;;;;0.67;0.67;;;6.10;99.90;;;;;;4992743;28;20210;-60
2021/12/01 00:55:21;;;;;;;0.60;0.60;;;6.10;99.90;;;;;;4991503;28;20204;-59
2021/12/01 00:57:50;;;;;;;0.70;0.70;;;6.10;99.90;;;;;;4990031;28;20212;-60
2021/12/01 01:00:18;;;;;;;0.60;0.60;;;6.10;99.90;;;;;;4994011;28;20253;-60
2021/12/01 01:02:44;;;;;;;0.60;0.60;;;6.10;99.90;;;;;;4992443;28;20214;-59
2021/12/01 01:05:11;;;;;;;0.70;0.70;;;6.20;99.90;;;;;;4994172;28;20205;-60
2021/12/01 01:07:40;;;;;;;0.70;0.70;;;6.20;99.90;;;;;;4995324;28;20292;-61
2021/12/01 01:10:18;;;;;;;0.70;0.70;;;6.10;99.90;;;;;;4994863;28;20233;-62
2021/12/01 01:18:15;;;;;;;0.60;0.60;;;6.10;99.90;;;;;;4994055;28;20208;-59
2021/12/01 01:20:42;;;;;;;0.67;0.67;;;6.10;99.90;;;;;;4992792;28;20739;-60
2021/12/01 01:23:10;;;;;;;0.70;0.70;;;6.10;99.90;;;;;;4991191;28;20206;-61
2021/12/01 01:25:37;;;;;;;1.20;1.20;;;6.10;99.90;;;;;;4992093;28;20675;-62
2021/12/01 01:28:04;;;;;;;1.00;1.00;;;6.10;99.90;;;;;;4992746;28;20240;-60
2021/12/01 01:30:31;;;;;;;0.70;0.70;;;6.10;99.90;;;;;;4990998;28;20234;-61
2021/12/01 01:32:59;;;;;;;0.60;0.60;;;6.10;99.90;;;;;;4991500;28;20209;-60
2021/12/01 01:35:26;;;;;;;0.70;0.70;;;6.10;99.90;;;;;;4992606;28;20204;-61
2021/12/01 01:37:53;;;;;;;1.23;1.13;;;6.10;99.90;;;;;;4991216;28;20202;-60
2021/12/01 01:40:21;;;;;;;0.83;0.83;;;6.10;99.90;;;;;;4993004;28;20304;-60
2021/12/01 01:42:49;;;;;;;1.50;1.40;;;6.20;99.90;;;;;;4992235;28;20228;-60
2021/12/01 01:45:16;;;;;;;1.20;1.20;;;6.20;99.90;;;;;;4987851;28;20210;-60
2021/12/01 01:47:58;;;;;;;0.87;0.87;;;6.20;99.90;;;;;;4989376;28;20732;-61
2021/12/01 01:50:34;;;;;;;0.80;0.80;;;6.20;99.90;;;;;;4991871;28;20236;-60
2021/12/01 01:53:03;;;;;;;0.87;0.87;;;6.30;99.90;;;;;;4987506;28;20198;-60
2021/12/01 01:55:31;;;;;;;1.10;1.10;;;6.30;99.90;;;;;;4992871;28;20213;-62
2021/12/01 01:57:58;;;;;;;0.80;0.80;;;6.40;99.90;;;;;;4990614;28;20198;-60
2021/12/01 02:00:26;;;;;;;0.57;0.57;;;6.40;99.90;;;;;;4984613;28;20313;-61
2021/12/01 02:02:54;;;;;;;0.90;0.90;;;6.40;99.90;;;;;;4990235;28;20317;-61
2021/12/01 02:05:21;;;;;;;0.60;0.60;;;6.30;99.90;;;;;;4989920;28;20214;-61
2021/12/01 02:07:49;;;;;;;0.70;0.70;;;6.40;99.90;;;;;;4990401;28;20208;-61
2021/12/01 02:10:16;;;;;;;1.20;1.20;;;6.40;99.90;;;;;;4986973;28;20226;-60
2021/12/01 02:12:44;;;;;;;0.80;0.80;;;6.40;99.90;;;;;;4991918;28;20213;-60
2021/12/01 02:15:11;;;;;;;0.50;0.50;;;6.40;99.90;;;;;;4989223;28;20206;-60
2021/12/01 02:17:38;;;;;;;0.70;0.70;;;6.40;99.90;;;;;;4990927;28;20697;-60
2021/12/01 02:20:12;;;;;;;0.50;0.50;;;6.50;99.90;;;;;;4988140;28;20231;-61
2021/12/01 02:22:41;;;;;;;0.50;0.50;;;6.60;99.90;;;;;;4990298;28;20198;-61
2021/12/01 02:25:08;;;;;;;0.70;0.70;;;6.60;99.90;;;;;;4985663;28;20582;-60
2021/12/01 02:27:35;;;;;;;1.10;1.10;;;6.50;99.90;;;;;;4983405;28;20302;-59
2021/12/01 02:30:02;;;;;;;1.00;1.00;;;6.60;99.90;;;;;;4985759;28;20329;-60
2021/12/01 02:32:29;;;;;;;0.67;0.67;;;6.60;99.90;;;;;;4988829;28;20202;-60
2021/12/01 02:34:56;;;;;;;0.70;0.70;;;6.60;99.90;;;;;;4991709;28;20212;-61
2021/12/01 02:37:23;;;;;;;0.90;0.90;;;6.60;99.90;;;;;;4987977;28;20733;-60
2021/12/01 02:39:52;;;;;;;0.70;0.70;;;6.70;99.90;;;;;;4990822;28;20224;-61
2021/12/01 02:42:20;;;;;;;0.67;0.67;;;6.70;99.90;;;;;;4992523;28;20212;-60
2021/12/01 02:44:47;;;;;;;0.50;0.50;;;6.70;99.90;;;;;;4989632;28;20202;-61
2021/12/01 02:47:14;;;;;;;0.47;0.47;;;6.70;99.90;;;;;;4991783;28;20221;-63
2021/12/01 02:49:41;;;;;;;0.50;0.50;;;6.70;99.90;;;;;;4988466;28;20579;-61
2021/12/01 02:52:08;;;;;;;0.53;0.53;;;6.60;99.90;;;;;;4991443;28;20210;-61
2021/12/01 02:54:35;;;;;;;0.50;0.50;;;6.70;99.90;;;;;;4992879;28;20251;-60
2021/12/01 02:57:04;;;;;;;0.60;0.60;;;6.70;99.90;;;;;;4990328;28;20210;-60
2021/12/01 02:59:31;;;;;;;1.30;1.30;;;6.80;99.90;;;;;;4992278;28;20665;-60
2021/12/01 03:01:59;;;;;;;0.90;0.90;;;6.80;99.90;;;;;;4992261;28;20209;-59
2021/12/01 03:04:27;;;;;;;0.80;0.80;;;6.80;99.90;;;;;;4988550;28;20571;-59
2021/12/01 03:06:54;;;;;;;0.80;0.80;;;6.80;99.90;;;;;;4993343;28;20202;-59
2021/12/01 03:09:21;;;;;;;0.80;0.80;;;6.90;99.90;;;;;;4987984;28;20292;-59
2021/12/01 03:11:49;;;;;;;0.60;0.60;;;6.90;99.90;;;;;;4988711;28;20233;-61
2021/12/01 03:14:18;;;;;;;0.40;0.40;;;6.90;99.90;;;;;;4992496;28;20280;-61
2021/12/01 03:16:47;;;;;;;0.50;0.50;;;6.90;99.90;;;;;;4986627;28;20652;-59
2021/12/01 03:19:15;;;;;;;0.60;0.60;;;6.90;99.90;;;;;;4992218;28;20210;-61
2021/12/01 03:21:43;;;;;;;0.50;0.50;;;6.90;99.90;;;;;;4986181;28;20260;-59
2021/12/01 03:24:12;;;;;;;0.50;0.50;;;6.90;99.90;;;;;;4991876;28;20551;-61
2021/12/01 03:26:39;;;;;;;0.60;0.60;;;6.90;99.90;;;;;;4985774;28;20615;-59
2021/12/01 03:29:08;;;;;;;0.57;0.57;;;6.80;99.90;;;;;;4993901;28;20206;-61
2021/12/01 03:31:37;;;;;;;0.60;0.60;;;6.90;99.90;;;;;;4994712;28;20260;-60
2021/12/01 03:34:05;;;;;;;0.50;0.50;;;6.90;99.90;;;;;;4994565;28;20806;-59
2021/12/01 03:36:32;;;;;;;0.50;0.50;;;6.90;99.90;;;;;;4995867;28;20214;-60
2021/12/01 03:38:58;;;;;;;0.53;0.53;;;6.90;99.90;;;;;;4989366;28;20203;-62
2021/12/01 03:41:25;;;;;;;0.70;0.70;;;6.90;99.90;;;;;;4988791;28;20222;-62
2021/12/01 03:43:52;;;;;;;0.37;0.37;;;6.90;99.90;;;;;;4989012;28;20877;-60
2021/12/01 03:46:21;;;;;;;0.63;0.50;;;6.90;99.90;;;;;;4982201;28;20206;-60
2021/12/01 03:48:49;;;;;;;0.50;0.50;;;6.90;99.90;;;;;;4993604;28;20261;-60
2021/12/01 03:51:17;;;;;;;0.70;0.70;;;7.00;99.90;;;;;;5018405;22;20889;-65
2021/12/01 03:53:43;;;;;;;0.60;0.60;;;7.00;99.90;;;;;;5016534;28;20213;-65
2021/12/01 03:56:10;;;;;;;0.40;0.40;;;7.00;99.90;;;;;;5016003;28;20292;-66
2021/12/01 03:58:37;;;;;;;0.70;0.70;;;7.00;99.90;;;;;;5007919;28;20292;-65
2021/12/01 04:01:04;;;;;;;0.60;0.60;;;7.00;99.90;;;;;;5013711;28;20225;-66
2021/12/01 04:03:31;;;;;;;0.80;0.80;;;7.10;99.90;;;;;;5012487;28;20311;-65
2021/12/01 04:05:59;;;;;;;0.77;0.77;;;7.10;99.90;;;;;;5003976;28;20564;-65
2021/12/01 04:08:26;;;;;;;0.70;0.70;;;7.10;99.90;;;;;;5007994;28;20628;-65
2021/12/01 04:10:53;;;;;;;0.50;0.50;;;7.20;99.90;;;;;;5011103;28;20233;-66
2021/12/01 04:13:20;;;;;;;0.40;0.40;;;7.10;99.90;;;;;;5008357;28;20215;-66
2021/12/01 04:15:47;;;;;;;0.40;0.40;;;7.10;99.90;;;;;;5013332;28;20307;-65
2021/12/01 04:18:14;;;;;;;0.40;0.40;;;7.10;99.90;;;;;;5005466;28;20320;-66
2021/12/01 04:20:41;;;;;;;0.43;0.43;;;7.10;99.90;;;;;;5011910;28;20214;-66
2021/12/01 04:23:10;;;;;;;0.40;0.40;;;7.10;99.90;;;;;;5013536;28;20256;-65
2021/12/01 04:25:37;;;;;;;0.40;0.40;;;7.10;99.90;;;;;;5014323;28;20261;-65
2021/12/01 04:28:05;;;;;;;0.50;0.50;;;7.10;99.90;;;;;;5027607;28;20256;-66
2021/12/01 04:30:32;;;;;;;0.50;0.50;;;7.10;99.90;;;;;;5010437;28;20605;-65
2021/12/01 04:32:58;;;;;;;0.40;0.40;;;7.10;99.90;;;;;;4998633;28;20205;-66
2021/12/01 04:35:27;;;;;;;0.60;0.60;;;7.20;99.90;;;;;;5004561;28;20218;-65
2021/12/01 04:37:55;;;;;;;0.50;0.50;;;7.20;99.90;;;;;;5010595;28;20561;-66
2021/12/01 04:40:24;;;;;;;0.33;0.33;;;7.20;99.90;;;;;;5013373;28;20712;-67
2021/12/01 04:42:51;;;;;;;0.30;0.30;;;7.20;99.90;;;;;;5010391;28;20197;-64
2021/12/01 04:45:19;;;;;;;0.40;0.40;;;7.20;99.90;;;;;;5006887;28;20210;-64
2021/12/01 04:47:48;;;;;;;0.40;0.40;;;7.20;99.90;;;;;;5009472;28;20201;-67
2021/12/01 04:50:17;;;;;;;0.20;0.20;;;7.30;99.90;;;;;;5005870;28;20234;-65
2021/12/01 04:52:45;;;;;;;0.40;0.30;;;7.30;99.90;;;;;;5004151;28;20691;-66
2021/12/01 04:55:13;;;;;;;0.40;0.40;;;7.30;99.90;;;;;;5010864;28;20590;-65
2021/12/01 04:57:43;;;;;;;0.33;0.33;;;7.40;99.90;;;;;;5005848;28;20677;-67
2021/12/01 05:00:26;;;;;;;0.20;0.20;;;7.40;99.90;;;;;;5007642;28;20252;-64
2021/12/01 05:02:54;;;;;;;0.33;0.33;;;7.40;99.90;;;;;;5013182;28;20580;-64
2021/12/01 05:05:21;;;;;;;0.40;0.40;;;7.40;99.90;;;;;;5010471;28;20213;-63
2021/12/01 05:07:52;;;;;;;0.50;0.50;;;7.50;99.90;;;;;;5025736;28;20209;-64
2021/12/01 05:10:22;;;;;;;0.40;0.40;;;7.50;99.90;;;;;;5021239;28;20235;-64
2021/12/01 05:12:51;;;;;;;0.30;0.30;;;7.60;99.90;;;;;;5026592;28;20240;-65
2021/12/01 05:15:18;;;;;;;0.37;0.37;;;7.60;99.90;;;;;;5018217;28;20241;-64
2021/12/01 05:17:45;;;;;;;0.40;0.40;;;7.60;99.90;;;;;;5001376;28;20206;-65
2021/12/01 05:20:12;;;;;;;0.30;0.30;;;7.70;99.90;;;;;;5009949;28;20277;-63
2021/12/01 05:22:40;;;;;;;0.20;0.20;;;7.70;99.90;;;;;;5012141;28;20572;-63
2021/12/01 05:25:07;;;;;;;0.20;0.20;;;7.70;99.90;;;;;;5012624;28;20219;-63
2021/12/01 05:27:34;;;;;;;0.30;0.30;;;7.80;99.90;;;;;;5011261;28;20201;-63
2021/12/01 05:30:02;;;;;;;0.40;0.40;;;7.80;99.90;;;;;;5011997;28;20225;-62
2021/12/01 05:32:30;;;;;;;0.40;0.40;;;7.80;99.90;;;;;;5012545;28;20225;-63
2021/12/01 05:34:57;;;;;;;0.30;0.30;;;7.90;99.90;;;;;;5012995;28;20201;-63
2021/12/01 05:37:24;;;;;;;0.40;0.40;;;7.90;99.90;;;;;;5005311;28;20301;-64
2021/12/01 05:39:51;;;;;;;0.40;0.40;;;8.00;99.90;;;;;;5011598;28;20201;-63
2021/12/01 05:42:18;;;;;;;0.50;0.50;;;8.00;99.90;;;;;;5012164;28;20201;-64
2021/12/01 05:44:45;;;;;;;0.33;0.33;;;8.00;99.90;;;;;;5012150;28;20197;-62
2021/12/01 05:47:14;;;;;;;0.40;0.40;;;8.00;99.90;;;;;;5012882;28;20205;-64
2021/12/01 05:49:44;;;;;;;0.60;0.60;;;7.90;99.90;;;;;;5013192;28;20244;-63
2021/12/01 05:52:12;;;;;;;0.37;0.37;;;7.90;99.90;;;;;;5014015;28;20293;-62
2021/12/01 05:54:40;;;;;;;0.43;0.43;;;7.90;99.90;;;;;;5014279;28;20215;-64
2021/12/01 05:57:07;;;;;;;0.60;0.60;;;7.90;99.90;;;;;;5014893;28;20209;-63
2021/12/01 05:59:34;;;;;;;0.50;0.50;;;7.90;99.90;;;;;;5014700;28;20208;-63
2021/12/01 06:02:01;;;;;;;0.40;0.40;;;7.80;99.90;;;;;;5009123;28;20217;-62
2021/12/01 06:04:30;;;;;;;1.10;1.10;;;7.80;99.90;;;;;;5009279;28;20675;-64
2021/12/01 06:06:56;;;;;;;0.53;0.53;;;7.80;99.90;;;;;;5005931;28;20562;-61
2021/12/01 06:09:23;;;;;;;0.70;0.70;;;7.80;99.90;;;;;;5011471;28;20209;-63
2021/12/01 06:11:52;;;;;;;0.40;0.40;;;7.80;99.90;;;;;;5011245;28;20231;-61
2021/12/01 06:14:19;;;;;;;0.40;0.40;;;7.90;99.90;;;;;;5012055;28;20248;-64
2021/12/01 06:16:46;;;;;;;0.40;0.40;;;7.90;99.90;;;;;;5010276;28;20280;-63
2021/12/01 06:19:13;;;;;;;0.30;0.30;;;7.90;99.90;;;;;;5012338;28;20209;-64
2021/12/01 06:21:42;;;;;;;0.37;0.37;;;7.90;99.90;;;;;;5023930;28;20333;-63
2021/12/01 06:24:09;;;;;;;0.30;0.30;;;7.90;99.90;;;;;;5021923;28;20209;-63
2021/12/01 06:26:35;;;;;;;0.30;0.30;;;7.90;99.90;;;;;;5011055;28;20648;-62
2021/12/01 06:29:02;;;;;;;0.30;0.30;;;7.90;99.90;;;;;;5011162;28;20216;-62
2021/12/01 06:31:29;;;;;;;0.30;0.30;;;7.90;99.90;;;;;;5008997;28;20232;-63
2021/12/01 06:33:59;;;;;;;0.20;0.20;;;8.00;99.90;;;;;;5009384;28;20201;-62
2021/12/01 06:36:27;;;;;;;0.23;0.23;;;7.90;99.90;;;;;;5009207;28;20209;-63
2021/12/01 06:38:59;;;;;;;0.50;0.50;;;8.00;99.90;;;;;;5003772;28;20284;-62
2021/12/01 06:41:36;;;;;;;0.30;0.30;;;8.00;99.90;;;;;;5001455;28;20341;-63
2021/12/01 06:44:08;;;;;;;0.30;0.30;;;8.00;99.90;;;;;;4998696;28;20210;-62
2021/12/01 06:46:36;;;;;;;0.40;0.40;;;8.00;99.90;;;;;;5000932;28;20202;-61
2021/12/01 06:49:03;;;;;;;0.30;0.30;;;8.00;99.90;;;;;;5008710;28;20240;-61
2021/12/01 06:51:30;;;;;;;0.20;0.20;;;8.00;99.90;;;;;;5002151;28;20283;-63
2021/12/01 06:54:04;;;;;;;0.47;0.47;;;8.10;99.90;;;;;;5004584;28;20296;-61
2021/12/01 06:56:37;;;;;;;0.30;0.30;;;8.10;99.90;;;;;;4999620;28;20206;-61
2021/12/01 06:59:04;;;;;;;0.40;0.40;;;8.10;99.90;;;;;;5002623;28;20316;-62
2021/12/01 07:01:32;;;;;;;0.30;0.30;;;8.20;99.90;;;;;;5013935;28;20236;-61
2021/12/01 07:03:59;;;;;;;0.30;0.30;;;8.10;99.90;;;;;;5008686;28;20206;-62
2021/12/01 07:06:26;;;;;;;0.50;0.50;;;8.20;99.90;;;;;;5010638;28;20236;-61
2021/12/01 07:08:59;;;;;;;0.20;0.20;;;8.30;99.90;;;;;;5016838;28;20202;-62
2021/12/01 07:14:17;;;;;;;0.40;0.40;;;8.40;99.90;;;;;;5011872;28;20303;-61
2021/12/01 07:16:52;;;;;;;0.27;0.27;;;8.30;99.90;;;;;;5019451;28;20285;-61
2021/12/01 07:19:22;;;;;;;0.40;0.40;;;8.40;99.90;;;;;;5017268;28;20198;-62
2021/12/01 07:21:53;;;;;;;0.20;0.20;;;8.40;99.90;;;;;;5021616;28;20259;-63
2021/12/01 07:24:20;;;;;;;0.93;0.30;;;8.40;99.90;;;;;;5018182;28;20233;-62
2021/12/01 07:26:50;;;;;;;0.23;0.23;;;8.50;99.90;;;;;;5021398;28;20447;-63
2021/12/01 07:32:11;;;;;;;0.30;0.30;;;8.70;99.90;;;;;;5005779;28;20218;-61
2021/12/01 07:34:43;;;;;;;0.20;0.20;;;8.70;99.90;;;;;;5009350;28;20252;-61
2021/12/01 07:37:13;;;;;;;0.30;0.30;;;8.70;99.90;;;;;;5008739;28;20208;-61
2021/12/01 07:39:44;;;;;;;0.30;0.30;;;8.80;99.90;;;;;;5009797;28;20292;-62
2021/12/01 07:42:14;;;;;;;0.30;0.30;;;8.80;99.90;;;;;;5007358;28;20206;-61
2021/12/01 07:44:46;;;;;;;0.27;0.27;;;8.90;99.90;;;;;;5010036;28;20288;-61
2021/12/01 07:47:20;;;;;;;0.20;0.20;;;8.90;99.90;;;;;;5008210;28;20206;-61
2021/12/01 07:50:00;;;;;;;0.30;0.30;;;9.00;99.90;;;;;;5002862;28;20202;-62
2021/12/01 07:52:35;;;;;;;0.27;0.27;;;9.00;99.90;;;;;;5008738;28;20284;-62
2021/12/01 07:55:19;;;;;;;0.20;0.20;;;9.00;99.90;;;;;;5009244;28;20204;-62
2021/12/01 07:57:52;;;;;;;0.20;0.20;;;9.10;99.90;;;;;;5005818;28;20202;-63
2021/12/01 08:00:29;;;;;;;0.30;0.30;;;9.10;99.90;;;;;;5001008;28;20237;-61
2021/12/01 08:03:16;;;;;;;0.20;0.20;;;9.20;99.90;;;;;;5010982;28;20217;-62
2021/12/01 08:08:27;;;;;;;0.20;0.20;;;9.30;99.90;;;;;;4999348;28;20233;-61
2021/12/01 08:11:02;;;;;;;0.27;0.27;;;9.50;99.90;;;;;;5005681;28;20226;-62
2021/12/01 08:13:35;;;;;;;0.23;0.23;;;9.50;99.90;;;;;;5015191;28;20216;-61
2021/12/01 08:16:09;;;;;;;0.30;0.30;;;9.50;99.90;;;;;;5013393;28;20660;-65
2021/12/01 08:18:40;;;;;;;0.20;0.20;;;9.60;99.90;;;;;;5020377;28;20541;-62
2021/12/01 08:21:11;;;;;;;0.20;0.20;;;9.60;99.90;;;;;;5003794;28;20600;-63
2021/12/01 08:23:53;;;;;;;0.40;0.40;;;9.60;99.90;;;;;;5004894;28;20202;-62
2021/12/01 08:26:23;;;;;;;0.13;0.13;;;9.70;99.90;;;;;;5002080;28;20202;-61
2021/12/01 08:28:57;;;;;;;0.10;0.10;;;9.80;99.90;;;;;;5004010;28;20198;-61
2021/12/01 08:31:24;;;;;;;0.40;0.40;;;9.70;99.90;;;;;;5001378;28;20230;-63
2021/12/01 08:33:53;;;;;;;0.20;0.20;;;9.70;99.90;;;;;;5001343;28;20232;-63
2021/12/01 08:36:20;;;;;;;0.10;0.10;;;9.70;99.90;;;;;;5003860;28;20202;-62
2021/12/01 08:38:48;;;;;;;0.20;0.20;;;9.70;99.90;;;;;;5005275;28;20335;-62
2021/12/01 08:41:15;;;;;;;0.10;0.10;;;9.70;99.90;;;;;;5002956;28;20356;-62
2021/12/01 08:43:42;;;;;;;0.20;0.20;;;9.70;99.90;;;;;;5006060;28;20208;-61
2021/12/01 08:46:19;;;;;;;0.30;0.30;;;9.70;99.90;;;;;;5006790;28;20297;-61
2021/12/01 08:48:47;;;;;;;0.30;0.30;;;9.70;99.90;;;;;;5005582;28;20277;-62
2021/12/01 08:51:16;;;;;;;0.47;0.47;;;9.70;99.90;;;;;;5008427;28;20298;-62
2021/12/01 08:53:43;;;;;;;0.23;0.23;;;9.70;99.90;;;;;;5010450;28;20217;-63
2021/12/01 08:56:21;;;;;;;0.40;0.40;;;9.80;99.90;;;;;;5008273;28;20579;-63
2021/12/01 08:59:02;;;;;;;0.30;0.30;;;9.80;99.90;;;;;;5011663;28;20209;-62
2021/12/01 09:01:37;;;;;;;0.20;0.20;;;9.80;99.90;;;;;;5006251;28;20228;-62
2021/12/01 09:04:13;;;;;;;0.30;0.30;;;9.80;99.90;;;;;;5006133;28;20288;-62
2021/12/01 09:06:41;;;;;;;0.20;0.20;;;9.90;99.90;;;;;;5006833;28;20580;-64
2021/12/01 09:09:17;;;;;;;0.20;0.20;;;9.90;99.90;;;;;;5011228;28;20300;-63
2021/12/01 09:11:49;;;;;;;0.27;0.27;;;9.90;99.90;;;;;;5003639;28;20228;-63
2021/12/01 09:14:16;;;;;;;0.93;0.23;;;9.90;99.90;;;;;;5004354;28;20229;-63
2021/12/01 09:16:49;;;;;;;0.37;0.20;;;9.90;99.90;;;;;;5005246;28;20209;-62
2021/12/01 09:19:23;;;;;;;0.20;0.20;;;9.90;99.90;;;;;;5003909;28;20244;-62
2021/12/01 09:21:50;;;;;;;0.20;0.20;;;9.90;99.90;;;;;;5003599;28;20253;-64
2021/12/01 09:24:18;;;;;;;0.20;0.20;;;9.90;99.90;;;;;;4999528;28;20233;-63
2021/12/01 09:26:49;;;;;;;0.30;0.30;;;9.90;99.90;;;;;;5003071;28;20285;-61
2021/12/01 09:29:19;;;;;;;0.20;0.20;;;9.90;99.90;;;;;;5003346;28;20205;-63
2021/12/01 09:31:47;;;;;;;0.20;0.20;;;10.00;99.90;;;;;;5008465;28;20303;-62
2021/12/01 09:34:16;;;;;;;0.20;0.20;;;10.00;99.90;;;;;;5007479;28;20198;-63
2021/12/01 09:36:43;;;;;;;0.20;0.20;;;10.00;99.90;;;;;;5000001;28;20206;-62
2021/12/01 09:39:21;;;;;;;0.20;0.20;;;9.90;99.90;;;;;;5003809;28;20695;-62
2021/12/01 09:41:54;;;;;;;0.20;0.20;;;10.00;99.90;;;;;;5000885;28;20229;-61
2021/12/01 09:44:31;;;;;;;0.37;0.37;;;10.00;99.90;;;;;;5000228;28;20293;-63
2021/12/01 09:47:03;;;;;;;0.20;0.20;;;10.00;99.90;;;;;;5002350;28;20289;-64
2021/12/01 09:49:31;;;;;;;0.23;0.23;;;10.00;99.90;;;;;;5008920;28;20581;-62
2021/12/01 09:52:03;;;;;;;0.10;0.10;;;10.00;99.90;;;;;;5010370;28;20292;-61
2021/12/01 09:54:33;;;;;;;0.20;0.20;;;10.00;99.90;;;;;;5003844;28;20205;-61
2021/12/01 09:57:15;;;;;;;0.20;0.20;;;10.10;99.90;;;;;;4998560;28;20612;-61
2021/12/01 09:59:52;;;;;;;0.20;0.20;;;10.10;99.90;;;;;;5000471;28;20662;-63
2021/12/01 10:02:31;;;;;;;0.10;0.10;;;10.10;99.90;;;;;;4998916;28;20197;-63
2021/12/01 10:05:07;;;;;;;0.17;0.17;;;10.10;99.90;;;;;;5003923;28;20219;-62
2021/12/01 10:10:31;;;;;;;0.20;0.13;;;10.20;99.90;;;;;;5013609;28;20222;-61
2021/12/01 10:13:09;;;;;;;0.23;0.23;;;10.20;99.90;;;;;;5013259;28;20687;-62
2021/12/01 10:15:40;;;;;;;0.27;0.27;;;10.20;99.90;;;;;;5014797;28;20221;-63
2021/12/01 10:18:31;;;;;;;0.10;0.10;;;10.20;99.90;;;;;;5005765;28;20672;-63
2021/12/01 10:21:16;;;;;;;0.40;0.40;;;10.20;99.90;;;;;;5005985;28;20252;-63
2021/12/01 10:23:47;;;;;;;0.20;0.20;;;10.20;99.90;;;;;;5005493;28;20243;-61
2021/12/01 10:26:50;;;;;;;0.30;0.30;;;10.30;99.90;;;;;;5002900;28;20202;-63
2021/12/01 10:29:29;;;;;;;0.17;0.17;;;10.20;99.90;;;;;;5005312;28;20748;-62
2021/12/01 10:32:06;;;;;;;0.20;0.20;;;10.30;99.90;;;;;;5004367;28;20217;-62
2021/12/01 10:34:41;;;;;;;0.20;0.20;;;10.30;99.90;;;;;;5003575;28;20193;-63
2021/12/01 10:37:28;;;;;;;0.20;0.20;;;10.30;99.90;;;;;;5002528;28;20208;-62
2021/12/01 10:40:09;;;;;;;0.13;0.13;;;10.40;99.90;;;;;;4966059;28;20702;-61
2021/12/01 10:42:55;;;;;;;0.23;0.23;;;10.30;99.90;;;;;;4966595;28;20210;-63
2021/12/01 10:45:24;;;;;;;0.30;0.30;;;10.40;99.90;;;;;;4963666;28;20198;-62
2021/12/01 10:48:01;;;;;;;0.30;0.30;;;10.40;99.90;;;;;;4965471;28;20298;-63
2021/12/01 10:50:31;;;;;;;0.10;0.10;;;10.40;99.90;;;;;;4964252;28;20233;-62
2021/12/01 10:53:12;;;;;;;0.30;0.30;;;10.40;99.90;;;;;;4965376;28;20237;-63
2021/12/01 10:55:43;;;;;;;0.20;0.20;;;10.50;99.90;;;;;;4966665;28;20207;-63
2021/12/01 10:58:15;;;;;;;0.40;0.40;;;10.50;99.90;;;;;;4964529;28;20293;-61
2021/12/01 11:00:45;;;;;;;0.20;0.20;;;10.50;99.90;;;;;;4966489;28;20269;-63
2021/12/01 11:03:17;;;;;;;0.40;0.40;;;10.50;99.90;;;;;;4966991;28;20206;-61
2021/12/01 11:05:51;;;;;;;0.30;0.30;;;10.60;99.90;;;;;;4969959;28;20230;-63
2021/12/01 11:08:22;;;;;;;0.30;0.30;;;10.60;99.90;;;;;;4962253;28;20286;-62
2021/12/01 11:10:51;;;;;;;0.20;0.20;;;10.60;99.90;;;;;;4962483;28;20219;-61
2021/12/01 11:13:19;;;;;;;0.30;0.30;;;10.60;99.90;;;;;;4968416;28;20307;-61
2021/12/01 11:15:55;;;;;;;0.33;0.33;;;10.60;99.90;;;;;;4964911;28;20202;-61
2021/12/01 11:18:32;;;;;;;0.23;0.23;;;10.60;99.90;;;;;;5004561;28;20198;-61
2021/12/01 11:21:03;;;;;;;0.20;0.20;;;10.70;99.90;;;;;;5006313;28;20308;-63
2021/12/01 11:23:34;;;;;;;0.20;0.20;;;10.70;99.90;;;;;;5007806;28;20220;-63
2021/12/01 11:26:05;;;;;;;0.10;0.10;;;10.70;99.90;;;;;;5001700;28;20202;-62
2021/12/01 11:28:35;;;;;;;0.30;0.30;;;10.70;99.90;;;;;;5007439;28;20220;-61
2021/12/01 11:31:08;;;;;;;0.43;0.43;;;10.70;99.90;;;;;;5001024;28;20230;-63
2021/12/01 11:33:44;;;;;;;0.43;0.43;;;10.80;99.90;;;;;;5004017;28;20268;-61
2021/12/01 11:36:17;;;;;;;0.10;0.10;;;10.80;99.90;;;;;;5004870;28;20197;-62
2021/12/01 11:38:50;;;;;;;0.20;0.20;;;10.80;99.90;;;;;;5006268;28;20563;-65
2021/12/01 11:41:18;;;;;;;0.50;0.50;;;10.80;99.90;;;;;;5008828;28;20700;-62
2021/12/01 11:43:49;;;;;;;0.10;0.10;;;10.80;99.90;;;;;;5005129;28;20197;-61
2021/12/01 11:46:19;;;;;;;0.20;0.20;;;10.90;99.90;;;;;;5010448;28;20193;-62
2021/12/01 11:48:50;;;;;;;0.30;0.30;;;10.90;99.90;;;;;;5014919;28;20257;-62
2021/12/01 11:51:22;;;;;;;0.20;0.20;;;10.90;99.90;;;;;;5013406;28;20715;-61
2021/12/01 11:53:54;;;;;;;0.10;0.10;;;10.90;99.90;;;;;;5012566;28;20216;-63
2021/12/01 11:56:26;;;;;;;0.20;0.20;;;10.90;99.90;;;;;;5014743;28;20264;-63
2021/12/01 11:59:06;;;;;;;0.23;0.23;;;10.90;99.90;;;;;;5006087;28;20205;-64
2021/12/01 12:01:49;;;;;;;0.30;0.30;;;10.90;99.90;;;;;;5010308;28;20221;-63
2021/12/01 12:04:32;;;;;;;0.20;0.20;;;10.90;99.90;;;;;;5021259;28;20270;-62
2021/12/01 12:07:08;;;;;;;0.20;0.20;;;10.90;99.90;;;;;;5020382;28;20201;-64
2021/12/01 12:10:02;;;;;;;0.10;0.10;;;10.90;99.90;;;;;;5019586;28;20208;-63
2021/12/01 12:12:47;;;;;;;0.50;0.50;;;10.80;99.90;;;;;;5011131;28;20224;-63
2021/12/01 12:15:36;;;;;;;0.40;0.40;;;10.80;99.90;;;;;;5011678;28;20276;-62
2021/12/01 12:18:06;;;;;;;0.30;0.30;;;10.80;99.90;;;;;;5013472;28;20220;-62
2021/12/01 12:20:40;;;;;;;0.30;0.30;;;10.80;99.90;;;;;;5010768;28;20226;-62
2021/12/01 12:23:15;;;;;;;0.30;0.30;;;10.70;99.90;;;;;;5009643;28;20304;-62
2021/12/01 12:25:51;;;;;;;0.20;0.20;;;10.70;99.90;;;;;;5005969;28;20216;-61
2021/12/01 12:28:36;;;;;;;0.30;0.30;;;10.70;99.90;;;;;;5005033;28;20247;-61
2021/12/01 12:31:07;;;;;;;0.30;0.30;;;10.70;99.90;;;;;;5000306;28;20236;-61
2021/12/01 12:33:38;;;;;;;0.20;0.20;;;10.70;99.90;;;;;;5003899;28;20232;-63
2021/12/01 12:36:11;;;;;;;0.20;0.20;;;10.60;99.90;;;;;;5004427;28;20229;-62
2021/12/01 12:39:00;;;;;;;0.23;0.23;;;10.60;99.90;;;;;;5002371;28;20209;-62
2021/12/01 12:41:32;;;;;;;0.13;0.13;;;10.60;99.90;;;;;;4997867;28;20221;-61
2021/12/01 12:44:51;;;;;;;0.27;0.27;;;10.60;99.90;;;;;;5000657;28;20228;-62
2021/12/01 12:47:22;;;;;;;0.10;0.10;;;10.60;99.90;;;;;;4952419;28;20204;-61
2021/12/01 12:49:50;;;;;;;0.40;0.40;;;10.60;99.90;;;;;;4992890;28;20202;-62
2021/12/01 12:52:32;;;;;;;0.30;0.30;;;10.60;99.90;;;;;;5002894;28;20584;-61
2021/12/01 12:55:03;;;;;;;0.20;0.20;;;10.60;99.90;;;;;;5004964;28;20312;-62
2021/12/01 12:57:54;;;;;;;0.20;0.20;;;10.60;99.90;;;;;;5014137;28;20287;-62
2021/12/01 13:00:25;;;;;;;0.40;0.40;;;10.60;99.90;;;;;;5015241;28;20252;-63
2021/12/01 13:02:56;;;;;;;0.30;0.30;;;10.60;99.90;;;;;;5004551;28;20209;-62
2021/12/01 13:05:33;;;;;;;0.20;0.20;;;10.60;99.90;;;;;;5007344;28;20205;-62
2021/12/01 13:08:01;;;;;;;0.37;0.37;;;10.60;99.90;;;;;;5000194;28;20613;-61
2021/12/01 13:10:31;;;;;;;0.20;0.20;;;10.60;99.90;;;;;;5005067;28;20762;-61
2021/12/01 13:13:01;;;;;;;0.23;0.23;;;10.60;99.90;;;;;;5006261;28;20630;-62
2021/12/01 13:15:37;;;;;;;0.20;0.20;;;10.60;99.90;;;;;;5011560;28;20205;-61
2021/12/01 13:18:06;;;;;;;0.40;0.40;;;10.60;99.90;;;;;;5002298;28;20207;-63
2021/12/01 13:20:36;;;;;;;0.20;0.20;;;10.60;99.90;;;;;;5002198;28;20238;-61
2021/12/01 13:23:19;;;;;;;0.40;0.40;;;10.50;99.90;;;;;;5019387;28;20221;-62
2021/12/01 13:26:00;;;;;;;0.40;0.40;;;10.50;99.90;;;;;;5020465;28;21069;-63
2021/12/01 13:28:40;;;;;;;0.40;0.40;;;10.60;99.90;;;;;;5020731;28;20198;-62